createdAt,value
2022-10-17T00:01:04.402Z,100.00
2022-10-17T00:03:33.745Z,100.00
2022-10-17T00:06:06.487Z,100.00
2022-10-17T00:08:33.839Z,100.00
2022-10-17T00:11:03.565Z,100.00
2022-10-17T00:15:58.687Z,100.00
2022-10-17T00:18:26.172Z,100.00
2022-10-17T00:20:54.840Z,100.00
2022-10-17T00:23:22.296Z,100.00
2022-10-17T00:25:58.841Z,100.00
2022-10-17T00:28:26.270Z,100.00
2022-10-17T00:30:56.857Z,100.00
2022-10-17T00:33:24.185Z,100.00
2022-10-17T00:35:51.518Z,100.00
2022-10-17T00:38:20.183Z,100.00
2022-10-17T00:40:47.871Z,100.00
2022-10-17T00:43:18.297Z,100.00
2022-10-17T00:45:45.609Z,100.00
2022-10-17T00:48:13.152Z,100.00
2022-10-17T00:50:43.122Z,100.00
2022-10-17T00:53:10.543Z,100.00
2022-10-17T00:55:44.330Z,100.00
2022-10-17T00:58:11.860Z,100.00
2022-10-17T01:00:39.289Z,100.00
2022-10-17T01:03:06.672Z,100.00
2022-10-17T01:05:34.145Z,100.00
2022-10-17T01:08:02.308Z,100.00
2022-10-17T01:10:32.412Z,100.00
2022-10-17T01:13:08.508Z,100.00
2022-10-17T01:15:45.407Z,100.00
2022-10-17T01:18:20.760Z,100.00
2022-10-17T01:21:10.394Z,100.00
2022-10-17T01:23:59.058Z,100.00
2022-10-17T01:26:37.013Z,100.00
2022-10-17T01:29:21.261Z,100.00
2022-10-17T01:31:54.281Z,100.00
2022-10-17T01:34:32.268Z,100.00
2022-10-17T01:37:03.086Z,100.00
2022-10-17T01:39:38.514Z,100.00
2022-10-17T01:42:13.789Z,100.00
2022-10-17T01:44:47.831Z,100.00
2022-10-17T01:47:19.561Z,100.00
2022-10-17T01:49:47.740Z,100.00
2022-10-17T01:52:18.165Z,100.00
2022-10-17T01:54:47.716Z,100.00
2022-10-17T01:57:20.592Z,100.00
2022-10-17T01:59:50.534Z,100.00
2022-10-17T02:02:20.025Z,100.00
2022-10-17T02:04:47.592Z,100.00
2022-10-17T02:07:16.020Z,100.00
2022-10-17T02:09:43.625Z,100.00
2022-10-17T02:12:28.083Z,100.00
2022-10-17T02:15:08.905Z,100.00
2022-10-17T02:17:45.181Z,100.00
2022-10-17T02:20:18.812Z,100.00
2022-10-17T02:22:58.164Z,100.00
2022-10-17T02:25:32.711Z,100.00
2022-10-17T02:28:05.300Z,100.00
2022-10-17T02:30:35.184Z,100.00
2022-10-17T02:33:08.437Z,100.00
2022-10-17T02:35:38.041Z,100.00
2022-10-17T02:38:06.485Z,100.00
2022-10-17T02:40:34.403Z,100.00
2022-10-17T02:43:01.841Z,100.00
2022-10-17T02:45:35.708Z,100.00
2022-10-17T02:48:10.082Z,100.00
2022-10-17T02:50:45.403Z,100.00
2022-10-17T02:53:15.356Z,100.00
2022-10-17T02:55:48.715Z,100.00
2022-10-17T02:58:20.163Z,100.00
2022-10-17T03:00:47.492Z,100.00
2022-10-17T03:03:22.036Z,100.00
2022-10-17T03:05:49.416Z,100.00
2022-10-17T03:08:16.813Z,100.00
2022-10-17T03:10:44.212Z,100.00
2022-10-17T03:13:11.806Z,100.00
2022-10-17T03:15:41.329Z,100.00
2022-10-17T03:18:09.505Z,100.00
2022-10-17T03:20:38.373Z,100.00
2022-10-17T03:23:05.872Z,100.00
2022-10-17T03:25:33.870Z,100.00
2022-10-17T03:28:02.027Z,100.00
2022-10-17T03:30:29.773Z,100.00
2022-10-17T03:32:58.316Z,100.00
2022-10-17T03:35:26.033Z,100.00
2022-10-17T03:37:56.213Z,100.00
2022-10-17T03:40:24.893Z,100.00
2022-10-17T03:42:53.065Z,100.00
2022-10-17T03:45:20.420Z,100.00
2022-10-17T03:47:48.913Z,100.00
2022-10-17T03:50:16.606Z,100.00
2022-10-17T03:52:47.614Z,100.00
2022-10-17T03:55:16.793Z,100.00
2022-10-17T03:57:45.593Z,99.52
2022-10-17T04:00:14.593Z,100.00
2022-10-17T04:02:42.053Z,99.50
2022-10-17T04:05:15.050Z,98.83
2022-10-17T04:07:42.476Z,98.96
2022-10-17T04:10:11.745Z,98.81
2022-10-17T04:12:40.530Z,98.59
2022-10-17T04:15:08.904Z,98.56
2022-10-17T04:17:38.123Z,98.02
2022-10-17T04:20:07.118Z,97.58
2022-10-17T04:22:35.069Z,97.91
2022-10-17T04:25:03.128Z,97.50
2022-10-17T04:27:36.060Z,97.28
2022-10-17T04:30:05.737Z,97.61
2022-10-17T04:32:37.596Z,97.24
2022-10-17T04:35:23.293Z,97.39
2022-10-17T04:37:57.769Z,96.58
2022-10-17T04:40:26.053Z,97.17
2022-10-17T04:42:54.059Z,96.75
2022-10-17T04:45:27.140Z,96.89
2022-10-17T04:47:58.721Z,96.49
2022-10-17T04:50:26.133Z,96.67
2022-10-17T04:53:20.320Z,96.41
2022-10-17T04:55:47.992Z,96.99
2022-10-17T04:58:15.966Z,96.36
2022-10-17T05:00:44.730Z,96.57
2022-10-17T05:03:15.877Z,96.67
2022-10-17T05:05:43.827Z,96.41
2022-10-17T05:08:12.654Z,95.79
2022-10-17T05:10:41.313Z,96.20
2022-10-17T05:13:08.792Z,95.47
2022-10-17T05:15:37.616Z,96.16
2022-10-17T05:18:07.277Z,95.92
2022-10-17T05:20:35.275Z,95.97
2022-10-17T05:23:03.377Z,96.07
2022-10-17T05:25:35.616Z,96.00
2022-10-17T05:28:02.977Z,95.50
2022-10-17T05:30:35.094Z,95.89
2022-10-17T05:33:07.598Z,95.72
2022-10-17T05:35:35.073Z,95.33
2022-10-17T05:38:02.720Z,95.13
2022-10-17T05:40:32.786Z,95.11
2022-10-17T05:43:00.147Z,95.26
2022-10-17T05:45:27.550Z,94.74
2022-10-17T05:47:54.920Z,94.52
2022-10-17T05:50:25.086Z,94.80
2022-10-17T05:53:04.323Z,94.72
2022-10-17T05:55:35.253Z,94.73
2022-10-17T05:58:02.979Z,94.15
2022-10-17T06:00:35.807Z,94.66
2022-10-17T06:03:03.306Z,94.00
2022-10-17T06:05:31.986Z,93.79
2022-10-17T06:08:01.911Z,93.84
2022-10-17T06:10:31.750Z,93.84
2022-10-17T06:12:59.741Z,93.00
2022-10-17T06:15:27.423Z,93.67
2022-10-17T06:18:01.065Z,93.63
2022-10-17T06:20:28.463Z,93.25
2022-10-17T06:22:57.202Z,93.14
2022-10-17T06:25:38.385Z,93.03
2022-10-17T06:28:06.314Z,92.76
2022-10-17T06:30:33.765Z,92.47
2022-10-17T06:33:01.167Z,91.86
2022-10-17T06:35:29.393Z,91.33
2022-10-17T06:37:58.833Z,90.88
2022-10-17T06:40:26.763Z,90.79
2022-10-17T06:42:55.166Z,90.31
2022-10-17T06:45:39.202Z,89.74
2022-10-17T06:48:17.233Z,89.75
2022-10-17T06:50:52.517Z,88.92
2022-10-17T06:53:24.930Z,88.16
2022-10-17T06:56:12.709Z,87.21
2022-10-17T06:58:58.716Z,85.96
2022-10-17T07:01:31.790Z,85.41
2022-10-17T07:04:01.119Z,84.75
2022-10-17T07:06:29.950Z,84.86
2022-10-17T07:09:02.594Z,85.76
2022-10-17T07:11:30.029Z,85.20
2022-10-17T07:13:57.409Z,85.96
2022-10-17T07:16:24.821Z,86.42
2022-10-17T07:19:00.475Z,86.17
2022-10-17T07:21:27.896Z,86.66
2022-10-17T07:23:55.472Z,86.79
2022-10-17T07:26:24.217Z,86.53
2022-10-17T07:28:54.950Z,86.20
2022-10-17T07:31:31.581Z,86.47
2022-10-17T07:34:00.392Z,86.83
2022-10-17T07:36:28.480Z,85.96
2022-10-17T07:38:57.161Z,86.61
2022-10-17T07:41:27.740Z,87.17
2022-10-17T07:43:55.352Z,86.40
2022-10-17T07:46:28.385Z,86.77
2022-10-17T07:48:55.868Z,86.01
2022-10-17T07:51:23.372Z,86.62
2022-10-17T07:53:50.692Z,86.49
2022-10-17T07:56:18.164Z,85.91
2022-10-17T07:58:48.103Z,86.56
2022-10-17T08:01:16.195Z,85.91
2022-10-17T08:03:45.036Z,85.13
2022-10-17T08:06:13.082Z,85.98
2022-10-17T08:08:40.573Z,85.00
2022-10-17T08:11:09.553Z,85.98
2022-10-17T08:13:37.701Z,85.65
2022-10-17T08:16:08.797Z,85.63
2022-10-17T08:18:36.352Z,85.75
2022-10-17T08:21:06.117Z,86.31
2022-10-17T08:23:33.613Z,86.51
2022-10-17T08:26:01.547Z,85.93
2022-10-17T08:28:29.407Z,85.52
2022-10-17T08:31:03.835Z,84.62
2022-10-17T08:33:33.159Z,84.74
2022-10-17T08:36:00.836Z,85.07
2022-10-17T08:38:32.126Z,84.03
2022-10-17T08:41:06.165Z,83.80
2022-10-17T08:43:43.856Z,83.75
2022-10-17T08:46:11.593Z,84.37
2022-10-17T08:48:46.312Z,83.38
2022-10-17T08:51:16.842Z,83.27
2022-10-17T08:54:06.398Z,82.38
2022-10-17T08:56:48.052Z,82.34
2022-10-17T08:59:19.466Z,80.67
2022-10-17T09:01:49.913Z,79.20
2022-10-17T09:04:35.671Z,79.58
2022-10-17T09:07:07.153Z,79.18
2022-10-17T09:09:39.416Z,79.65
2022-10-17T09:12:16.574Z,79.68
2022-10-17T09:14:59.614Z,79.29
2022-10-17T09:17:35.146Z,79.77
2022-10-17T09:20:10.956Z,80.38
2022-10-17T09:22:42.405Z,79.90
2022-10-17T09:25:12.837Z,79.53
2022-10-17T09:27:42.916Z,79.72
2022-10-17T09:30:40.510Z,78.84
2022-10-17T09:33:28.307Z,78.40
2022-10-17T09:36:06.335Z,78.35
2022-10-17T09:38:39.260Z,79.98
2022-10-17T09:41:25.585Z,79.61
2022-10-17T09:43:57.252Z,78.09
2022-10-17T09:46:28.285Z,78.15
2022-10-17T09:51:29.192Z,76.64
2022-10-17T09:53:58.373Z,78.06
2022-10-17T09:56:25.787Z,77.06
2022-10-17T09:58:57.082Z,77.96
2022-10-17T10:01:26.668Z,77.21
2022-10-17T10:04:10.585Z,77.06
2022-10-17T10:06:39.798Z,77.93
2022-10-17T10:09:08.117Z,76.00
2022-10-17T10:11:49.158Z,77.08
2022-10-17T10:14:23.141Z,76.26
2022-10-17T10:16:51.461Z,78.26
2022-10-17T10:19:29.266Z,78.55
2022-10-17T10:21:59.012Z,77.57
2022-10-17T10:24:30.830Z,79.38
2022-10-17T10:27:00.455Z,77.12
2022-10-17T10:29:31.106Z,75.37
2022-10-17T10:32:08.986Z,75.93
2022-10-17T10:34:37.273Z,77.16
2022-10-17T10:37:07.449Z,75.94
2022-10-17T10:39:48.277Z,74.81
2022-10-17T10:42:22.402Z,75.34
2022-10-17T10:44:50.573Z,76.99
2022-10-17T10:47:23.927Z,74.95
2022-10-17T10:49:53.473Z,74.22
2022-10-17T10:52:29.955Z,72.85
2022-10-17T10:55:04.730Z,73.00
2022-10-17T10:57:34.910Z,71.16
2022-10-17T11:00:07.272Z,70.65
2022-10-17T11:02:38.499Z,72.40
2022-10-17T11:05:12.840Z,70.26
2022-10-17T11:07:45.716Z,71.53
2022-10-17T11:10:15.510Z,71.32
2022-10-17T11:12:46.134Z,69.02
2022-10-17T11:15:19.519Z,69.50
2022-10-17T11:17:53.354Z,68.90
2022-10-17T11:20:24.746Z,64.67
2022-10-17T11:22:57.459Z,67.26
2022-10-17T11:25:33.088Z,68.22
2022-10-17T11:28:04.647Z,68.09
2022-10-17T11:33:15.754Z,69.61
2022-10-17T11:35:46.030Z,71.37
2022-10-17T11:38:18.708Z,74.08
2022-10-17T11:40:48.594Z,70.99
2022-10-17T11:43:19.524Z,71.43
2022-10-17T11:45:48.925Z,73.96
2022-10-17T11:48:20.006Z,72.70
2022-10-17T11:53:47.956Z,73.19
2022-10-17T11:56:21.214Z,73.55
2022-10-17T11:58:53.751Z,72.37
2022-10-17T12:01:28.678Z,70.82
2022-10-17T12:04:14.582Z,72.62
2022-10-17T12:06:57.516Z,72.00
2022-10-17T12:09:37.067Z,71.48
2022-10-17T12:12:05.224Z,71.99
2022-10-17T12:14:38.446Z,72.91
2022-10-17T12:17:07.022Z,71.96
2022-10-17T12:19:35.821Z,73.63
2022-10-17T12:22:18.702Z,72.53
2022-10-17T12:24:58.803Z,72.77
2022-10-17T12:27:43.496Z,75.43
2022-10-17T12:30:25.397Z,73.88
2022-10-17T12:33:07.521Z,75.00
2022-10-17T12:35:36.765Z,74.96
2022-10-17T12:38:21.604Z,71.99
2022-10-17T12:41:01.314Z,71.68
2022-10-17T12:43:48.342Z,73.97
2022-10-17T12:46:54.770Z,73.56
2022-10-17T12:49:38.726Z,74.29
2022-10-17T12:52:29.413Z,75.01
2022-10-17T12:55:13.788Z,73.82
2022-10-17T12:57:48.575Z,74.71
2022-10-17T13:00:20.475Z,75.33
2022-10-17T13:02:48.998Z,75.71
2022-10-17T13:05:18.903Z,73.90
2022-10-17T13:07:46.979Z,76.13
2022-10-17T13:10:21.379Z,75.12
2022-10-17T13:12:50.549Z,75.70
2022-10-17T13:15:19.637Z,74.49
2022-10-17T13:17:56.482Z,74.75
2022-10-17T13:20:30.568Z,74.96
2022-10-17T13:23:02.433Z,76.65
2022-10-17T13:25:30.094Z,75.25
2022-10-17T13:28:13.604Z,76.06
2022-10-17T13:30:49.479Z,75.73
2022-10-17T13:33:28.851Z,74.91
2022-10-17T13:36:00.456Z,75.68
2022-10-17T13:38:32.379Z,75.38
2022-10-17T13:41:11.045Z,73.22
2022-10-17T13:43:49.318Z,76.24
2022-10-17T13:46:36.667Z,75.69
2022-10-17T13:49:12.642Z,74.49
2022-10-17T13:51:44.252Z,77.27
2022-10-17T13:54:33.381Z,75.49
2022-10-17T13:57:01.704Z,76.52
2022-10-17T13:59:35.220Z,75.65
2022-10-17T14:02:02.712Z,76.16
2022-10-17T14:04:40.048Z,76.34
2022-10-17T14:07:23.136Z,76.31
2022-10-17T14:09:50.635Z,76.42
2022-10-17T14:12:20.219Z,76.61
2022-10-17T14:15:14.030Z,76.01
2022-10-17T14:17:38.508Z,77.15
2022-10-17T14:20:47.827Z,76.57
2022-10-17T14:23:20.857Z,76.07
2022-10-17T14:25:42.985Z,76.98
2022-10-17T14:28:15.579Z,76.02
2022-10-17T14:30:56.164Z,75.92
2022-10-17T14:33:26.720Z,76.52
2022-10-17T14:35:56.014Z,76.86
2022-10-17T14:38:23.755Z,76.76
2022-10-17T14:40:53.160Z,76.80
2022-10-17T14:43:22.722Z,77.30
2022-10-17T14:45:51.728Z,78.32
2022-10-17T14:48:22.893Z,77.71
2022-10-17T14:51:08.998Z,78.84
2022-10-17T14:53:37.279Z,78.37
2022-10-17T14:56:06.814Z,78.31
2022-10-17T14:58:34.842Z,78.73
2022-10-17T15:01:04.016Z,78.77
2022-10-17T15:03:31.433Z,77.99
2022-10-17T15:06:00.252Z,79.69
2022-10-17T15:08:27.613Z,79.02
2022-10-17T15:10:54.981Z,78.62
2022-10-17T15:13:32.147Z,79.05
2022-10-17T15:16:03.925Z,79.45
2022-10-17T15:18:32.242Z,78.77
2022-10-17T15:21:05.033Z,78.54
2022-10-17T15:23:40.189Z,79.10
2022-10-17T15:26:15.857Z,79.28
2022-10-17T15:28:43.766Z,78.92
2022-10-17T15:31:17.188Z,79.63
2022-10-17T15:33:45.274Z,79.56
2022-10-17T15:36:24.729Z,80.29
2022-10-17T15:38:53.633Z,80.36
2022-10-17T15:41:21.079Z,79.92
2022-10-17T15:43:49.082Z,80.15
2022-10-17T15:46:21.220Z,81.10
2022-10-17T15:48:48.616Z,81.00
2022-10-17T15:51:16.247Z,81.56
2022-10-17T15:53:44.150Z,81.63
2022-10-17T15:56:20.832Z,81.73
2022-10-17T15:58:48.458Z,82.04
2022-10-17T16:01:23.498Z,81.87
2022-10-17T16:03:51.545Z,82.03
2022-10-17T16:06:20.096Z,82.12
2022-10-17T16:08:48.021Z,82.31
2022-10-17T16:11:19.530Z,81.84
2022-10-17T16:13:51.283Z,82.26
2022-10-17T16:16:19.184Z,82.48
2022-10-17T16:18:47.894Z,83.42
2022-10-17T16:21:16.628Z,82.92
2022-10-17T16:23:44.625Z,82.99
2022-10-17T16:26:14.085Z,83.15
2022-10-17T16:28:46.084Z,83.66
2022-10-17T16:31:19.773Z,84.66
2022-10-17T16:33:49.352Z,85.22
2022-10-17T16:36:16.756Z,85.25
2022-10-17T16:38:44.239Z,85.93
2022-10-17T16:41:22.161Z,86.04
2022-10-17T16:43:50.318Z,87.16
2022-10-17T16:46:17.851Z,88.40
2022-10-17T16:48:46.214Z,91.79
2022-10-17T16:51:16.180Z,94.27
2022-10-17T16:53:44.379Z,96.58
2022-10-17T16:56:13.212Z,97.68
2022-10-17T16:58:40.743Z,98.71
2022-10-17T17:01:10.467Z,100.00
2022-10-17T17:03:38.564Z,100.00
2022-10-17T17:06:07.202Z,100.00
2022-10-17T17:08:37.116Z,100.00
2022-10-17T17:11:06.993Z,100.00
2022-10-17T17:13:34.764Z,100.00
2022-10-17T17:16:06.910Z,100.00
2022-10-17T17:18:34.351Z,100.00
2022-10-17T17:21:02.553Z,100.00
2022-10-17T17:23:30.907Z,100.00
2022-10-17T17:26:00.897Z,100.00
2022-10-17T17:28:29.216Z,100.00
2022-10-17T17:30:56.954Z,100.00
2022-10-17T17:33:24.981Z,100.00
2022-10-17T17:35:55.919Z,100.00
2022-10-17T17:38:23.372Z,100.00
2022-10-17T17:40:51.443Z,100.00
2022-10-17T17:43:20.323Z,100.00
2022-10-17T17:45:48.029Z,100.00
2022-10-17T17:48:15.514Z,100.00
2022-10-17T17:50:43.681Z,100.00
2022-10-17T17:53:13.234Z,100.00
2022-10-17T17:55:40.729Z,100.00
2022-10-17T17:58:08.402Z,100.00
2022-10-17T18:00:37.246Z,100.00
2022-10-17T18:03:05.477Z,100.00
2022-10-17T18:05:32.925Z,100.00
2022-10-17T18:08:00.553Z,100.00
2022-10-17T18:10:28.907Z,100.00
2022-10-17T18:12:56.433Z,100.00
2022-10-17T18:15:23.843Z,100.00
2022-10-17T18:17:52.540Z,100.00
2022-10-17T18:20:20.106Z,100.00
2022-10-17T18:22:47.475Z,100.00
2022-10-17T18:25:14.997Z,100.00
2022-10-17T18:27:42.498Z,100.00
2022-10-17T18:30:10.901Z,100.00
2022-10-17T18:32:38.411Z,100.00
2022-10-17T18:35:07.794Z,100.00
2022-10-17T18:37:35.225Z,100.00
2022-10-17T18:40:03.276Z,100.00
2022-10-17T18:42:30.926Z,100.00
2022-10-17T18:44:58.661Z,100.00
2022-10-17T18:47:26.009Z,100.00
2022-10-17T18:49:53.484Z,100.00
2022-10-17T18:52:22.142Z,100.00
2022-10-17T18:54:49.917Z,100.00
2022-10-17T18:57:17.367Z,100.00
2022-10-17T18:59:44.714Z,100.00
2022-10-17T19:02:12.887Z,100.00
2022-10-17T19:04:40.474Z,100.00
2022-10-17T19:07:07.938Z,100.00
2022-10-17T19:09:36.714Z,100.00
2022-10-17T19:12:04.569Z,100.00
2022-10-17T19:14:32.184Z,100.00
2022-10-17T19:17:00.455Z,100.00
2022-10-17T19:19:27.821Z,100.00
2022-10-17T19:21:55.186Z,100.00
2022-10-17T19:24:25.214Z,100.00
2022-10-17T19:26:55.446Z,100.00
2022-10-17T19:29:24.636Z,100.00
2022-10-17T19:31:52.594Z,100.00
2022-10-17T19:34:20.170Z,100.00
2022-10-17T19:36:47.549Z,100.00
2022-10-17T19:39:16.745Z,100.00
2022-10-17T19:41:45.100Z,100.00
2022-10-17T19:44:14.088Z,100.00
2022-10-17T19:46:41.465Z,100.00
2022-10-17T19:49:08.808Z,100.00
2022-10-17T19:51:36.245Z,100.00
2022-10-17T19:54:03.979Z,100.00
2022-10-17T19:56:32.779Z,100.00
2022-10-17T19:59:00.341Z,100.00
2022-10-17T20:01:30.548Z,100.00
2022-10-17T20:03:58.005Z,100.00
2022-10-17T20:06:25.596Z,100.00
2022-10-17T20:08:53.160Z,100.00
2022-10-17T20:11:22.038Z,100.00
2022-10-17T20:13:50.044Z,100.00
2022-10-17T20:16:21.157Z,100.00
2022-10-17T20:18:50.380Z,100.00
2022-10-17T20:21:20.149Z,100.00
2022-10-17T20:23:47.849Z,100.00
2022-10-17T20:29:08.152Z,100.00
2022-10-17T20:31:35.573Z,100.00
2022-10-17T20:34:04.527Z,100.00
2022-10-17T20:36:32.257Z,100.00
2022-10-17T20:39:00.288Z,100.00
2022-10-17T20:41:28.145Z,100.00
2022-10-17T20:43:56.249Z,100.00
2022-10-17T20:46:36.435Z,100.00
2022-10-17T20:49:06.812Z,100.00
2022-10-17T20:51:34.593Z,100.00
2022-10-17T20:54:02.432Z,100.00
2022-10-17T20:56:31.260Z,100.00
2022-10-17T20:58:59.866Z,100.00
2022-10-17T21:01:27.967Z,100.00
2022-10-17T21:03:58.895Z,100.00
2022-10-17T21:06:29.369Z,100.00
2022-10-17T21:08:57.332Z,100.00
2022-10-17T21:11:26.427Z,100.00
2022-10-17T21:13:58.357Z,100.00
2022-10-17T21:16:27.044Z,100.00
2022-10-17T21:18:54.508Z,100.00
2022-10-17T21:21:23.409Z,100.00
2022-10-17T21:23:52.118Z,100.00
2022-10-17T21:26:20.041Z,100.00
2022-10-17T21:28:48.560Z,100.00
2022-10-17T21:31:17.526Z,100.00
2022-10-17T21:33:47.437Z,100.00
2022-10-17T21:36:16.648Z,100.00
2022-10-17T21:38:44.742Z,100.00
2022-10-17T21:41:14.865Z,100.00
2022-10-17T21:43:43.082Z,100.00
2022-10-17T21:46:12.687Z,100.00
2022-10-17T21:48:40.088Z,100.00
2022-10-17T21:51:09.882Z,100.00
2022-10-17T21:53:37.666Z,100.00
2022-10-17T21:56:06.167Z,100.00
2022-10-17T21:58:34.916Z,100.00
2022-10-17T22:01:07.284Z,100.00
2022-10-17T22:03:35.239Z,100.00
2022-10-17T22:06:12.796Z,100.00
2022-10-17T22:08:50.459Z,100.00
2022-10-17T22:11:19.369Z,100.00
2022-10-17T22:13:48.308Z,100.00
2022-10-17T22:16:17.029Z,100.00
2022-10-17T22:18:44.425Z,100.00
2022-10-17T22:21:16.410Z,100.00
2022-10-17T22:23:45.029Z,100.00
2022-10-17T22:26:12.985Z,100.00
2022-10-17T22:28:41.120Z,100.00
2022-10-17T22:31:10.439Z,100.00
2022-10-17T22:33:39.293Z,100.00
2022-10-17T22:36:07.776Z,100.00
2022-10-17T22:38:35.389Z,100.00
2022-10-17T22:41:02.989Z,100.00
2022-10-17T22:43:30.357Z,100.00
2022-10-17T22:45:59.401Z,100.00
2022-10-17T22:48:28.777Z,100.00
2022-10-17T22:50:57.500Z,100.00
2022-10-17T22:53:26.446Z,100.00
2022-10-17T22:55:54.556Z,100.00
2022-10-17T22:58:22.182Z,100.00
2022-10-17T23:00:50.041Z,100.00
2022-10-17T23:03:18.423Z,100.00
2022-10-17T23:05:47.308Z,100.00
2022-10-17T23:08:17.749Z,100.00
2022-10-17T23:10:45.445Z,100.00
2022-10-17T23:13:12.972Z,100.00
2022-10-17T23:15:40.948Z,100.00
2022-10-17T23:18:09.666Z,100.00
2022-10-17T23:20:37.654Z,100.00
2022-10-17T23:23:06.402Z,100.00
2022-10-17T23:25:34.368Z,100.00
2022-10-17T23:28:01.791Z,100.00
2022-10-17T23:30:29.256Z,100.00
2022-10-17T23:32:56.725Z,100.00
2022-10-17T23:35:24.090Z,100.00
2022-10-17T23:37:51.425Z,100.00
2022-10-17T23:40:20.142Z,100.00
2022-10-17T23:42:47.532Z,100.00
2022-10-17T23:45:14.897Z,100.00
2022-10-17T23:47:42.340Z,100.00
2022-10-17T23:50:09.936Z,100.00
2022-10-17T23:52:37.245Z,100.00
2022-10-17T23:55:05.292Z,100.00
2022-10-17T23:57:34.438Z,100.00
